sensor_id;sensor_type;location;lat;lon;timestamp;P1;durP1;ratioP1;P2;durP2;ratioP2
23432;SDS011;41331;45.412;10.992;2022-12-18T00:01:26;20.83;;;13.13;;
23432;SDS011;41331;45.412;10.992;2022-12-18T00:03:59;22.77;;;13.52;;
23432;SDS011;41331;45.412;10.992;2022-12-18T00:06:31;22.48;;;13.32;;
23432;SDS011;41331;45.412;10.992;2022-12-18T00:09:00;25.48;;;13.65;;
23432;SDS011;41331;45.412;10.992;2022-12-18T00:11:29;25.65;;;14.55;;
23432;SDS011;41331;45.412;10.992;2022-12-18T00:13:59;25.02;;;14.20;;
23432;SDS011;41331;45.412;10.992;2022-12-18T00:16:27;22.02;;;13.35;;
23432;SDS011;41331;45.412;10.992;2022-12-18T00:18:57;22.75;;;13.73;;
23432;SDS011;41331;45.412;10.992;2022-12-18T00:21:24;21.65;;;13.15;;
23432;SDS011;41331;45.412;10.992;2022-12-18T00:23:52;25.77;;;13.75;;
23432;SDS011;41331;45.412;10.992;2022-12-18T00:26:20;20.85;;;12.93;;
23432;SDS011;41331;45.412;10.992;2022-12-18T00:28:53;25.42;;;12.75;;
23432;SDS011;41331;45.412;10.992;2022-12-18T00:31:23;22.90;;;13.85;;
23432;SDS011;41331;45.412;10.992;2022-12-18T00:33:56;22.30;;;13.38;;
23432;SDS011;41331;45.412;10.992;2022-12-18T00:38:54;22.27;;;12.52;;
23432;SDS011;41331;45.412;10.992;2022-12-18T00:41:40;21.25;;;13.57;;
23432;SDS011;41331;45.412;10.992;2022-12-18T00:44:26;21.40;;;12.75;;
23432;SDS011;41331;45.412;10.992;2022-12-18T00:46:54;20.83;;;12.77;;
23432;SDS011;41331;45.412;10.992;2022-12-18T00:49:21;27.30;;;12.88;;
23432;SDS011;41331;45.412;10.992;2022-12-18T00:51:49;18.50;;;12.23;;
23432;SDS011;41331;45.412;10.992;2022-12-18T00:54:16;20.20;;;12.77;;
23432;SDS011;41331;45.412;10.992;2022-12-18T00:56:44;24.10;;;13.43;;
23432;SDS011;41331;45.412;10.992;2022-12-18T00:59:16;23.30;;;12.27;;
23432;SDS011;41331;45.412;10.992;2022-12-18T01:01:45;19.80;;;12.38;;
23432;SDS011;41331;45.412;10.992;2022-12-18T01:04:13;20.55;;;12.82;;
23432;SDS011;41331;45.412;10.992;2022-12-18T01:06:44;21.98;;;12.90;;
23432;SDS011;41331;45.412;10.992;2022-12-18T01:09:12;25.05;;;14.35;;
23432;SDS011;41331;45.412;10.992;2022-12-18T01:11:39;22.58;;;13.30;;
23432;SDS011;41331;45.412;10.992;2022-12-18T01:14:07;26.10;;;12.88;;
23432;SDS011;41331;45.412;10.992;2022-12-18T01:16:37;22.85;;;12.57;;
23432;SDS011;41331;45.412;10.992;2022-12-18T01:19:04;22.80;;;12.65;;
23432;SDS011;41331;45.412;10.992;2022-12-18T01:21:32;18.38;;;11.20;;
23432;SDS011;41331;45.412;10.992;2022-12-18T01:24:03;16.75;;;10.70;;
23432;SDS011;41331;45.412;10.992;2022-12-18T01:26:31;19.88;;;10.95;;
23432;SDS011;41331;45.412;10.992;2022-12-18T01:28:59;17.35;;;11.40;;
23432;SDS011;41331;45.412;10.992;2022-12-18T01:31:27;17.70;;;10.38;;
23432;SDS011;41331;45.412;10.992;2022-12-18T01:33:57;17.35;;;10.60;;
23432;SDS011;41331;45.412;10.992;2022-12-18T01:36:29;13.68;;;9.60;;
23432;SDS011;41331;45.412;10.992;2022-12-18T01:38:59;17.00;;;10.68;;
23432;SDS011;41331;45.412;10.992;2022-12-18T01:41:31;20.25;;;10.13;;
23432;SDS011;41331;45.412;10.992;2022-12-18T01:49:58;14.25;;;9.80;;
23432;SDS011;41331;45.412;10.992;2022-12-18T01:52:28;16.23;;;10.30;;
23432;SDS011;41331;45.412;10.992;2022-12-18T01:54:57;17.63;;;10.30;;
23432;SDS011;41331;45.412;10.992;2022-12-18T01:57:27;14.88;;;9.38;;
23432;SDS011;41331;45.412;10.992;2022-12-18T01:59:56;17.30;;;10.10;;
23432;SDS011;41331;45.412;10.992;2022-12-18T02:02:39;17.88;;;10.93;;
23432;SDS011;41331;45.412;10.992;2022-12-18T02:05:09;20.83;;;11.13;;
23432;SDS011;41331;45.412;10.992;2022-12-18T02:10:20;18.73;;;11.23;;
23432;SDS011;41331;45.412;10.992;2022-12-18T02:18:04;18.15;;;11.02;;
23432;SDS011;41331;45.412;10.992;2022-12-18T02:20:35;18.73;;;11.55;;
23432;SDS011;41331;45.412;10.992;2022-12-18T02:26:07;20.77;;;11.60;;
23432;SDS011;41331;45.412;10.992;2022-12-18T02:31:24;17.77;;;11.38;;
23432;SDS011;41331;45.412;10.992;2022-12-18T02:33:56;17.92;;;10.93;;
23432;SDS011;41331;45.412;10.992;2022-12-18T02:36:27;20.25;;;11.70;;
23432;SDS011;41331;45.412;10.992;2022-12-18T02:38:56;21.33;;;11.57;;
23432;SDS011;41331;45.412;10.992;2022-12-18T02:41:28;17.65;;;10.40;;
23432;SDS011;41331;45.412;10.992;2022-12-18T02:43:59;17.25;;;10.10;;
23432;SDS011;41331;45.412;10.992;2022-12-18T02:46:35;17.35;;;10.88;;
23432;SDS011;41331;45.412;10.992;2022-12-18T02:49:21;18.10;;;9.85;;
23432;SDS011;41331;45.412;10.992;2022-12-18T02:52:09;16.65;;;10.27;;
23432;SDS011;41331;45.412;10.992;2022-12-18T02:54:55;16.02;;;9.48;;
23432;SDS011;41331;45.412;10.992;2022-12-18T02:57:46;17.77;;;10.27;;
23432;SDS011;41331;45.412;10.992;2022-12-18T03:00:24;20.30;;;10.68;;
23432;SDS011;41331;45.412;10.992;2022-12-18T03:02:59;16.08;;;8.27;;
23432;SDS011;41331;45.412;10.992;2022-12-18T03:05:48;14.20;;;8.27;;
23432;SDS011;41331;45.412;10.992;2022-12-18T03:08:39;13.32;;;8.20;;
23432;SDS011;41331;45.412;10.992;2022-12-18T03:11:11;15.23;;;7.93;;
23432;SDS011;41331;45.412;10.992;2022-12-18T03:13:51;15.77;;;8.40;;
23432;SDS011;41331;45.412;10.992;2022-12-18T03:16:25;14.98;;;8.65;;
23432;SDS011;41331;45.412;10.992;2022-12-18T03:18:57;19.35;;;8.30;;
23432;SDS011;41331;45.412;10.992;2022-12-18T03:21:32;15.55;;;8.27;;
23432;SDS011;41331;45.412;10.992;2022-12-18T03:24:06;13.15;;;8.55;;
23432;SDS011;41331;45.412;10.992;2022-12-18T03:26:36;11.30;;;7.53;;
23432;SDS011;41331;45.412;10.992;2022-12-18T03:29:18;12.02;;;7.82;;
23432;SDS011;41331;45.412;10.992;2022-12-18T03:31:51;14.55;;;8.48;;
23432;SDS011;41331;45.412;10.992;2022-12-18T03:34:23;18.17;;;8.63;;
23432;SDS011;41331;45.412;10.992;2022-12-18T03:36:58;12.45;;;7.57;;
23432;SDS011;41331;45.412;10.992;2022-12-18T03:39:31;17.27;;;8.00;;
23432;SDS011;41331;45.412;10.992;2022-12-18T03:48:02;15.35;;;10.02;;
23432;SDS011;41331;45.412;10.992;2022-12-18T03:50:37;14.48;;;8.07;;
23432;SDS011;41331;45.412;10.992;2022-12-18T03:56:15;10.50;;;7.13;;
23432;SDS011;41331;45.412;10.992;2022-12-18T03:58:44;16.25;;;7.93;;
23432;SDS011;41331;45.412;10.992;2022-12-18T04:01:18;12.45;;;6.70;;
23432;SDS011;41331;45.412;10.992;2022-12-18T04:03:52;9.82;;;6.18;;
23432;SDS011;41331;45.412;10.992;2022-12-18T04:06:21;12.43;;;6.30;;
23432;SDS011;41331;45.412;10.992;2022-12-18T04:08:51;13.60;;;6.72;;
23432;SDS011;41331;45.412;10.992;2022-12-18T04:11:22;10.15;;;6.60;;
23432;SDS011;41331;45.412;10.992;2022-12-18T04:13:49;10.30;;;6.45;;
23432;SDS011;41331;45.412;10.992;2022-12-18T04:16:24;12.27;;;6.40;;
23432;SDS011;41331;45.412;10.992;2022-12-18T04:18:56;10.43;;;6.47;;
23432;SDS011;41331;45.412;10.992;2022-12-18T04:21:25;10.38;;;6.43;;
23432;SDS011;41331;45.412;10.992;2022-12-18T04:23:52;13.32;;;6.75;;
23432;SDS011;41331;45.412;10.992;2022-12-18T04:26:22;13.07;;;6.32;;
23432;SDS011;41331;45.412;10.992;2022-12-18T04:28:59;10.20;;;6.25;;
23432;SDS011;41331;45.412;10.992;2022-12-18T04:31:28;10.50;;;6.82;;
23432;SDS011;41331;45.412;10.992;2022-12-18T04:33:56;12.45;;;6.30;;
23432;SDS011;41331;45.412;10.992;2022-12-18T04:36:24;9.43;;;5.70;;
23432;SDS011;41331;45.412;10.992;2022-12-18T04:38:52;11.70;;;6.65;;
23432;SDS011;41331;45.412;10.992;2022-12-18T04:41:20;9.80;;;6.18;;
23432;SDS011;41331;45.412;10.992;2022-12-18T04:43:49;9.27;;;5.85;;
23432;SDS011;41331;45.412;10.992;2022-12-18T04:46:16;10.32;;;6.22;;
23432;SDS011;41331;45.412;10.992;2022-12-18T04:48:47;14.30;;;6.40;;
23432;SDS011;41331;45.412;10.992;2022-12-18T04:51:14;10.23;;;6.40;;
23432;SDS011;41331;45.412;10.992;2022-12-18T04:53:41;12.05;;;6.50;;
23432;SDS011;41331;45.412;10.992;2022-12-18T04:56:10;12.07;;;6.45;;
23432;SDS011;41331;45.412;10.992;2022-12-18T04:58:40;10.77;;;5.97;;
23432;SDS011;41331;45.412;10.992;2022-12-18T05:01:09;10.23;;;5.90;;
23432;SDS011;41331;45.412;10.992;2022-12-18T05:03:39;9.10;;;5.82;;
23432;SDS011;41331;45.412;10.992;2022-12-18T05:06:07;9.25;;;6.30;;
23432;SDS011;41331;45.412;10.992;2022-12-18T05:08:35;9.85;;;5.53;;
23432;SDS011;41331;45.412;10.992;2022-12-18T05:11:04;9.23;;;5.25;;
23432;SDS011;41331;45.412;10.992;2022-12-18T05:13:33;8.18;;;4.93;;
23432;SDS011;41331;45.412;10.992;2022-12-18T05:16:04;7.50;;;5.43;;
23432;SDS011;41331;45.412;10.992;2022-12-18T05:18:32;7.53;;;4.65;;
23432;SDS011;41331;45.412;10.992;2022-12-18T05:21:00;8.40;;;5.47;;
23432;SDS011;41331;45.412;10.992;2022-12-18T05:23:28;8.43;;;5.30;;
23432;SDS011;41331;45.412;10.992;2022-12-18T05:26:00;9.13;;;5.38;;
23432;SDS011;41331;45.412;10.992;2022-12-18T05:28:29;9.73;;;5.32;;
23432;SDS011;41331;45.412;10.992;2022-12-18T05:30:58;7.40;;;5.07;;
23432;SDS011;41331;45.412;10.992;2022-12-18T05:33:29;8.68;;;5.47;;
23432;SDS011;41331;45.412;10.992;2022-12-18T05:35:59;10.45;;;5.32;;
23432;SDS011;41331;45.412;10.992;2022-12-18T05:38:29;8.27;;;5.25;;
23432;SDS011;41331;45.412;10.992;2022-12-18T05:40:57;7.45;;;4.75;;
23432;SDS011;41331;45.412;10.992;2022-12-18T05:43:25;9.57;;;5.15;;
23432;SDS011;41331;45.412;10.992;2022-12-18T05:45:54;8.57;;;5.45;;
23432;SDS011;41331;45.412;10.992;2022-12-18T05:48:22;7.50;;;4.80;;
23432;SDS011;41331;45.412;10.992;2022-12-18T05:50:51;9.55;;;5.63;;
23432;SDS011;41331;45.412;10.992;2022-12-18T05:53:19;7.88;;;5.25;;
23432;SDS011;41331;45.412;10.992;2022-12-18T05:55:47;7.70;;;5.28;;
23432;SDS011;41331;45.412;10.992;2022-12-18T05:58:15;9.55;;;5.20;;
23432;SDS011;41331;45.412;10.992;2022-12-18T06:00:44;9.70;;;6.35;;
23432;SDS011;41331;45.412;10.992;2022-12-18T06:03:13;9.68;;;5.97;;
23432;SDS011;41331;45.412;10.992;2022-12-18T06:05:42;8.77;;;5.57;;
23432;SDS011;41331;45.412;10.992;2022-12-18T06:08:11;9.23;;;5.53;;
23432;SDS011;41331;45.412;10.992;2022-12-18T06:10:40;10.38;;;6.22;;
23432;SDS011;41331;45.412;10.992;2022-12-18T06:13:08;9.93;;;6.47;;
23432;SDS011;41331;45.412;10.992;2022-12-18T06:15:36;9.18;;;5.95;;
23432;SDS011;41331;45.412;10.992;2022-12-18T06:18:04;10.20;;;6.80;;
23432;SDS011;41331;45.412;10.992;2022-12-18T06:20:32;11.10;;;6.55;;
23432;SDS011;41331;45.412;10.992;2022-12-18T06:23:00;11.90;;;7.00;;
23432;SDS011;41331;45.412;10.992;2022-12-18T06:25:27;13.10;;;6.80;;
23432;SDS011;41331;45.412;10.992;2022-12-18T06:27:57;13.63;;;6.78;;
23432;SDS011;41331;45.412;10.992;2022-12-18T06:30:24;9.90;;;6.25;;
23432;SDS011;41331;45.412;10.992;2022-12-18T06:32:51;10.88;;;6.88;;
23432;SDS011;41331;45.412;10.992;2022-12-18T06:35:23;11.80;;;7.35;;
23432;SDS011;41331;45.412;10.992;2022-12-18T06:37:50;10.80;;;6.68;;
23432;SDS011;41331;45.412;10.992;2022-12-18T06:40:18;14.68;;;7.07;;
23432;SDS011;41331;45.412;10.992;2022-12-18T06:42:46;10.82;;;6.70;;
23432;SDS011;41331;45.412;10.992;2022-12-18T06:45:15;10.85;;;6.35;;
23432;SDS011;41331;45.412;10.992;2022-12-18T06:47:43;11.35;;;6.78;;
23432;SDS011;41331;45.412;10.992;2022-12-18T06:50:11;10.32;;;6.38;;
23432;SDS011;41331;45.412;10.992;2022-12-18T06:52:39;10.70;;;6.47;;
23432;SDS011;41331;45.412;10.992;2022-12-18T06:55:07;10.07;;;6.32;;
23432;SDS011;41331;45.412;10.992;2022-12-18T06:57:35;10.02;;;6.60;;
23432;SDS011;41331;45.412;10.992;2022-12-18T07:00:03;11.32;;;6.78;;
23432;SDS011;41331;45.412;10.992;2022-12-18T07:02:32;12.25;;;6.95;;
23432;SDS011;41331;45.412;10.992;2022-12-18T07:05:00;10.88;;;7.03;;
23432;SDS011;41331;45.412;10.992;2022-12-18T07:07:38;16.40;;;7.32;;
23432;SDS011;41331;45.412;10.992;2022-12-18T07:10:08;12.23;;;7.63;;
23432;SDS011;41331;45.412;10.992;2022-12-18T07:12:36;10.85;;;7.35;;
23432;SDS011;41331;45.412;10.992;2022-12-18T07:15:03;12.07;;;7.60;;
23432;SDS011;41331;45.412;10.992;2022-12-18T07:17:31;13.43;;;7.60;;
23432;SDS011;41331;45.412;10.992;2022-12-18T07:19:59;11.50;;;7.20;;
23432;SDS011;41331;45.412;10.992;2022-12-18T07:22:26;11.55;;;7.22;;
23432;SDS011;41331;45.412;10.992;2022-12-18T07:24:54;11.50;;;7.03;;
23432;SDS011;41331;45.412;10.992;2022-12-18T07:27:24;13.70;;;7.53;;
23432;SDS011;41331;45.412;10.992;2022-12-18T07:29:52;13.63;;;7.20;;
23432;SDS011;41331;45.412;10.992;2022-12-18T07:32:19;11.95;;;7.07;;
23432;SDS011;41331;45.412;10.992;2022-12-18T07:34:47;10.20;;;7.30;;
23432;SDS011;41331;45.412;10.992;2022-12-18T07:37:14;11.73;;;6.68;;
23432;SDS011;41331;45.412;10.992;2022-12-18T07:39:42;10.80;;;6.70;;
23432;SDS011;41331;45.412;10.992;2022-12-18T07:42:09;10.38;;;6.80;;
23432;SDS011;41331;45.412;10.992;2022-12-18T07:44:55;12.05;;;6.95;;
23432;SDS011;41331;45.412;10.992;2022-12-18T07:47:24;11.68;;;7.22;;
23432;SDS011;41331;45.412;10.992;2022-12-18T07:49:53;12.40;;;7.00;;
23432;SDS011;41331;45.412;10.992;2022-12-18T07:52:20;9.85;;;6.55;;
23432;SDS011;41331;45.412;10.992;2022-12-18T07:54:52;13.25;;;7.50;;
23432;SDS011;41331;45.412;10.992;2022-12-18T07:57:19;11.75;;;6.97;;
23432;SDS011;41331;45.412;10.992;2022-12-18T08:00:07;13.93;;;7.57;;
23432;SDS011;41331;45.412;10.992;2022-12-18T08:02:38;11.25;;;6.97;;
23432;SDS011;41331;45.412;10.992;2022-12-18T08:05:06;10.77;;;6.70;;
23432;SDS011;41331;45.412;10.992;2022-12-18T08:07:33;10.45;;;6.97;;
23432;SDS011;41331;45.412;10.992;2022-12-18T08:10:00;11.02;;;7.50;;
23432;SDS011;41331;45.412;10.992;2022-12-18T08:12:28;11.52;;;7.15;;
23432;SDS011;41331;45.412;10.992;2022-12-18T08:14:58;13.88;;;6.68;;
23432;SDS011;41331;45.412;10.992;2022-12-18T08:17:25;12.55;;;7.25;;
23432;SDS011;41331;45.412;10.992;2022-12-18T08:19:53;12.00;;;7.80;;
23432;SDS011;41331;45.412;10.992;2022-12-18T08:22:20;11.35;;;7.10;;
23432;SDS011;41331;45.412;10.992;2022-12-18T08:24:48;11.05;;;7.55;;
23432;SDS011;41331;45.412;10.992;2022-12-18T08:27:15;14.85;;;7.07;;
23432;SDS011;41331;45.412;10.992;2022-12-18T08:29:58;9.68;;;7.07;;
23432;SDS011;41331;45.412;10.992;2022-12-18T08:32:29;12.55;;;8.15;;
23432;SDS011;41331;45.412;10.992;2022-12-18T08:34:56;10.90;;;7.38;;
23432;SDS011;41331;45.412;10.992;2022-12-18T08:37:24;12.20;;;7.68;;
23432;SDS011;41331;45.412;10.992;2022-12-18T08:39:52;13.45;;;8.00;;
23432;SDS011;41331;45.412;10.992;2022-12-18T08:42:19;14.18;;;8.95;;
23432;SDS011;41331;45.412;10.992;2022-12-18T08:45:05;12.95;;;8.93;;
23432;SDS011;41331;45.412;10.992;2022-12-18T08:47:33;12.82;;;8.25;;
23432;SDS011;41331;45.412;10.992;2022-12-18T08:50:00;19.23;;;8.50;;
23432;SDS011;41331;45.412;10.992;2022-12-18T08:52:28;13.20;;;8.63;;
23432;SDS011;41331;45.412;10.992;2022-12-18T08:54:55;13.40;;;8.55;;
23432;SDS011;41331;45.412;10.992;2022-12-18T08:57:22;13.98;;;8.15;;
23432;SDS011;41331;45.412;10.992;2022-12-18T08:59:50;14.10;;;8.73;;
23432;SDS011;41331;45.412;10.992;2022-12-18T09:02:17;16.85;;;9.15;;
23432;SDS011;41331;45.412;10.992;2022-12-18T09:04:46;13.38;;;8.52;;
23432;SDS011;41331;45.412;10.992;2022-12-18T09:07:21;16.92;;;9.05;;
23432;SDS011;41331;45.412;10.992;2022-12-18T09:09:49;13.13;;;8.50;;
23432;SDS011;41331;45.412;10.992;2022-12-18T09:12:16;13.50;;;8.18;;
23432;SDS011;41331;45.412;10.992;2022-12-18T09:14:43;12.48;;;8.10;;
23432;SDS011;41331;45.412;10.992;2022-12-18T09:17:11;13.65;;;9.20;;
23432;SDS011;41331;45.412;10.992;2022-12-18T09:19:38;16.05;;;8.70;;
23432;SDS011;41331;45.412;10.992;2022-12-18T09:22:06;14.50;;;9.38;;
23432;SDS011;41331;45.412;10.992;2022-12-18T09:24:33;14.80;;;8.52;;
23432;SDS011;41331;45.412;10.992;2022-12-18T09:27:03;13.93;;;9.20;;
23432;SDS011;41331;45.412;10.992;2022-12-18T09:29:30;15.30;;;9.50;;
23432;SDS011;41331;45.412;10.992;2022-12-18T09:31:58;14.57;;;9.40;;
23432;SDS011;41331;45.412;10.992;2022-12-18T09:34:25;14.43;;;9.30;;
23432;SDS011;41331;45.412;10.992;2022-12-18T09:36:53;16.63;;;9.95;;
23432;SDS011;41331;45.412;10.992;2022-12-18T09:39:20;15.88;;;10.00;;
23432;SDS011;41331;45.412;10.992;2022-12-18T09:41:51;14.48;;;9.60;;
23432;SDS011;41331;45.412;10.992;2022-12-18T09:44:25;15.20;;;9.52;;
23432;SDS011;41331;45.412;10.992;2022-12-18T09:49:51;13.27;;;9.20;;
23432;SDS011;41331;45.412;10.992;2022-12-18T09:52:41;15.55;;;9.18;;
23432;SDS011;41331;45.412;10.992;2022-12-18T09:55:19;12.82;;;8.43;;
23432;SDS011;41331;45.412;10.992;2022-12-18T09:57:53;14.25;;;8.25;;
23432;SDS011;41331;45.412;10.992;2022-12-18T10:00:25;17.00;;;8.43;;
23432;SDS011;41331;45.412;10.992;2022-12-18T10:02:55;12.88;;;8.50;;
23432;SDS011;41331;45.412;10.992;2022-12-18T10:13:49;14.38;;;9.73;;
23432;SDS011;41331;45.412;10.992;2022-12-18T10:16:26;13.02;;;8.40;;
23432;SDS011;41331;45.412;10.992;2022-12-18T10:19:18;12.60;;;8.13;;
23432;SDS011;41331;45.412;10.992;2022-12-18T10:24:41;13.18;;;8.98;;
23432;SDS011;41331;45.412;10.992;2022-12-18T10:27:17;13.82;;;9.40;;
23432;SDS011;41331;45.412;10.992;2022-12-18T10:29:48;14.73;;;9.10;;
23432;SDS011;41331;45.412;10.992;2022-12-18T10:32:17;12.27;;;8.88;;
23432;SDS011;41331;45.412;10.992;2022-12-18T10:34:50;11.35;;;7.72;;
23432;SDS011;41331;45.412;10.992;2022-12-18T10:37:28;12.32;;;8.38;;
23432;SDS011;41331;45.412;10.992;2022-12-18T10:40:21;11.25;;;8.00;;
23432;SDS011;41331;45.412;10.992;2022-12-18T10:43:11;12.23;;;8.63;;
23432;SDS011;41331;45.412;10.992;2022-12-18T10:45:40;13.75;;;7.88;;
23432;SDS011;41331;45.412;10.992;2022-12-18T10:48:18;14.57;;;8.48;;
23432;SDS011;41331;45.412;10.992;2022-12-18T10:50:49;34.35;;;15.15;;
23432;SDS011;41331;45.412;10.992;2022-12-18T10:53:40;22.13;;;12.88;;
23432;SDS011;41331;45.412;10.992;2022-12-18T10:56:10;56.87;;;16.03;;
23432;SDS011;41331;45.412;10.992;2022-12-18T10:58:38;20.00;;;8.20;;
23432;SDS011;41331;45.412;10.992;2022-12-18T11:01:14;11.93;;;8.00;;
23432;SDS011;41331;45.412;10.992;2022-12-18T11:06:28;10.02;;;7.05;;
23432;SDS011;41331;45.412;10.992;2022-12-18T11:09:03;11.82;;;7.40;;
23432;SDS011;41331;45.412;10.992;2022-12-18T11:11:50;16.92;;;10.00;;
23432;SDS011;41331;45.412;10.992;2022-12-18T11:14:33;11.82;;;7.65;;
23432;SDS011;41331;45.412;10.992;2022-12-18T11:20:04;11.10;;;7.68;;
23432;SDS011;41331;45.412;10.992;2022-12-18T11:22:36;18.42;;;10.65;;
23432;SDS011;41331;45.412;10.992;2022-12-18T11:25:16;15.88;;;8.73;;
23432;SDS011;41331;45.412;10.992;2022-12-18T11:28:04;20.42;;;13.13;;
23432;SDS011;41331;45.412;10.992;2022-12-18T11:33:46;11.93;;;7.88;;
23432;SDS011;41331;45.412;10.992;2022-12-18T11:36:47;11.93;;;7.70;;
23432;SDS011;41331;45.412;10.992;2022-12-18T11:39:17;10.13;;;7.60;;
23432;SDS011;41331;45.412;10.992;2022-12-18T11:41:54;12.13;;;7.80;;
23432;SDS011;41331;45.412;10.992;2022-12-18T11:44:41;13.73;;;7.90;;
23432;SDS011;41331;45.412;10.992;2022-12-18T11:47:23;10.85;;;7.85;;
23432;SDS011;41331;45.412;10.992;2022-12-18T11:49:59;10.95;;;7.95;;
23432;SDS011;41331;45.412;10.992;2022-12-18T11:52:36;10.85;;;8.07;;
23432;SDS011;41331;45.412;10.992;2022-12-18T11:55:11;11.55;;;8.05;;
23432;SDS011;41331;45.412;10.992;2022-12-18T12:00:18;10.30;;;7.15;;
23432;SDS011;41331;45.412;10.992;2022-12-18T12:15:47;11.77;;;8.18;;
23432;SDS011;41331;45.412;10.992;2022-12-18T12:26:14;12.20;;;8.10;;
23432;SDS011;41331;45.412;10.992;2022-12-18T12:34:34;26.67;;;16.48;;
23432;SDS011;41331;45.412;10.992;2022-12-18T12:39:42;12.70;;;8.48;;
23432;SDS011;41331;45.412;10.992;2022-12-18T12:42:27;16.23;;;8.37;;
23432;SDS011;41331;45.412;10.992;2022-12-18T12:46:02;12.07;;;8.15;;
23432;SDS011;41331;45.412;10.992;2022-12-18T12:48:17;10.77;;;7.55;;
23432;SDS011;41331;45.412;10.992;2022-12-18T12:50:52;10.70;;;7.55;;
23432;SDS011;41331;45.412;10.992;2022-12-18T12:53:24;11.02;;;7.47;;
23432;SDS011;41331;45.412;10.992;2022-12-18T12:55:56;9.32;;;7.05;;
23432;SDS011;41331;45.412;10.992;2022-12-18T12:58:39;12.80;;;7.75;;
23432;SDS011;41331;45.412;10.992;2022-12-18T13:07:15;11.25;;;7.07;;
23432;SDS011;41331;45.412;10.992;2022-12-18T13:10:32;11.52;;;7.60;;
23432;SDS011;41331;45.412;10.992;2022-12-18T13:21:23;11.52;;;7.60;;
23432;SDS011;41331;45.412;10.992;2022-12-18T13:31:01;11.35;;;7.43;;
23432;SDS011;41331;45.412;10.992;2022-12-18T13:38:45;10.90;;;6.90;;
23432;SDS011;41331;45.412;10.992;2022-12-18T13:41:24;9.75;;;6.60;;
23432;SDS011;41331;45.412;10.992;2022-12-18T13:43:53;10.35;;;7.57;;
23432;SDS011;41331;45.412;10.992;2022-12-18T13:46:44;11.68;;;7.15;;
23432;SDS011;41331;45.412;10.992;2022-12-18T13:49:32;13.43;;;7.65;;
23432;SDS011;41331;45.412;10.992;2022-12-18T13:52:15;16.60;;;7.88;;
23432;SDS011;41331;45.412;10.992;2022-12-18T13:54:45;10.68;;;7.22;;
23432;SDS011;41331;45.412;10.992;2022-12-18T13:57:31;13.10;;;7.50;;
23432;SDS011;41331;45.412;10.992;2022-12-18T14:02:56;11.30;;;7.63;;
23432;SDS011;41331;45.412;10.992;2022-12-18T14:05:27;11.40;;;7.80;;
23432;SDS011;41331;45.412;10.992;2022-12-18T14:08:00;11.23;;;7.43;;
23432;SDS011;41331;45.412;10.992;2022-12-18T14:10:32;11.13;;;6.85;;
23432;SDS011;41331;45.412;10.992;2022-12-18T14:13:17;10.32;;;7.03;;
23432;SDS011;41331;45.412;10.992;2022-12-18T14:15:57;11.52;;;7.57;;
23432;SDS011;41331;45.412;10.992;2022-12-18T14:18:37;12.68;;;7.90;;
23432;SDS011;41331;45.412;10.992;2022-12-18T14:21:27;14.40;;;7.40;;
23432;SDS011;41331;45.412;10.992;2022-12-18T14:24:11;12.50;;;7.20;;
23432;SDS011;41331;45.412;10.992;2022-12-18T14:26:46;13.00;;;7.90;;
23432;SDS011;41331;45.412;10.992;2022-12-18T14:29:23;11.15;;;7.45;;
23432;SDS011;41331;45.412;10.992;2022-12-18T14:32:13;11.63;;;7.22;;
23432;SDS011;41331;45.412;10.992;2022-12-18T14:34:46;10.52;;;7.07;;
23432;SDS011;41331;45.412;10.992;2022-12-18T14:37:22;10.85;;;7.32;;
23432;SDS011;41331;45.412;10.992;2022-12-18T14:39:52;10.85;;;7.25;;
23432;SDS011;41331;45.412;10.992;2022-12-18T14:42:22;11.93;;;7.72;;
23432;SDS011;41331;45.412;10.992;2022-12-18T14:44:49;12.27;;;8.07;;
23432;SDS011;41331;45.412;10.992;2022-12-18T14:47:37;16.17;;;8.00;;
23432;SDS011;41331;45.412;10.992;2022-12-18T14:50:11;11.45;;;7.47;;
23432;SDS011;41331;45.412;10.992;2022-12-18T14:52:40;11.27;;;7.82;;
23432;SDS011;41331;45.412;10.992;2022-12-18T14:55:15;10.65;;;6.65;;
23432;SDS011;41331;45.412;10.992;2022-12-18T14:57:44;10.55;;;7.15;;
23432;SDS011;41331;45.412;10.992;2022-12-18T15:00:15;10.65;;;7.35;;
23432;SDS011;41331;45.412;10.992;2022-12-18T15:02:46;11.63;;;7.70;;
23432;SDS011;41331;45.412;10.992;2022-12-18T15:05:28;12.98;;;7.82;;
23432;SDS011;41331;45.412;10.992;2022-12-18T15:07:57;10.23;;;7.28;;
23432;SDS011;41331;45.412;10.992;2022-12-18T15:20:45;11.73;;;7.70;;
23432;SDS011;41331;45.412;10.992;2022-12-18T15:23:24;12.98;;;8.00;;
23432;SDS011;41331;45.412;10.992;2022-12-18T15:28:51;11.15;;;7.82;;
23432;SDS011;41331;45.412;10.992;2022-12-18T15:31:29;11.95;;;8.07;;
23432;SDS011;41331;45.412;10.992;2022-12-18T15:34:10;14.23;;;7.60;;
23432;SDS011;41331;45.412;10.992;2022-12-18T15:36:47;12.77;;;7.50;;
23432;SDS011;41331;45.412;10.992;2022-12-18T15:39:15;10.57;;;7.57;;
23432;SDS011;41331;45.412;10.992;2022-12-18T15:41:42;14.25;;;8.20;;
23432;SDS011;41331;45.412;10.992;2022-12-18T15:44:31;11.10;;;7.47;;
23432;SDS011;41331;45.412;10.992;2022-12-18T15:46:59;13.77;;;8.02;;
23432;SDS011;41331;45.412;10.992;2022-12-18T15:49:26;12.07;;;8.32;;
23432;SDS011;41331;45.412;10.992;2022-12-18T15:51:56;12.80;;;8.60;;
23432;SDS011;41331;45.412;10.992;2022-12-18T15:54:25;15.63;;;9.07;;
23432;SDS011;41331;45.412;10.992;2022-12-18T15:57:12;15.00;;;9.48;;
23432;SDS011;41331;45.412;10.992;2022-12-18T15:59:52;16.02;;;10.43;;
23432;SDS011;41331;45.412;10.992;2022-12-18T16:02:22;22.95;;;12.32;;
23432;SDS011;41331;45.412;10.992;2022-12-18T16:04:51;20.42;;;11.95;;
23432;SDS011;41331;45.412;10.992;2022-12-18T16:07:19;22.98;;;12.02;;
23432;SDS011;41331;45.412;10.992;2022-12-18T16:12:20;23.27;;;13.65;;
23432;SDS011;41331;45.412;10.992;2022-12-18T16:14:49;23.23;;;15.35;;
23432;SDS011;41331;45.412;10.992;2022-12-18T16:17:17;26.10;;;16.08;;
23432;SDS011;41331;45.412;10.992;2022-12-18T16:19:44;26.80;;;16.83;;
23432;SDS011;41331;45.412;10.992;2022-12-18T16:22:23;25.63;;;16.13;;
23432;SDS011;41331;45.412;10.992;2022-12-18T16:24:55;26.80;;;16.17;;
23432;SDS011;41331;45.412;10.992;2022-12-18T16:27:24;27.63;;;16.95;;
23432;SDS011;41331;45.412;10.992;2022-12-18T16:29:51;34.50;;;17.60;;
23432;SDS011;41331;45.412;10.992;2022-12-18T16:32:19;27.58;;;16.95;;
23432;SDS011;41331;45.412;10.992;2022-12-18T16:34:50;29.48;;;17.40;;
23432;SDS011;41331;45.412;10.992;2022-12-18T16:37:18;28.50;;;16.80;;
23432;SDS011;41331;45.412;10.992;2022-12-18T16:39:45;28.70;;;17.08;;
23432;SDS011;41331;45.412;10.992;2022-12-18T16:42:14;29.45;;;17.77;;
23432;SDS011;41331;45.412;10.992;2022-12-18T16:44:46;36.35;;;18.40;;
23432;SDS011;41331;45.412;10.992;2022-12-18T16:47:14;32.65;;;19.13;;
23432;SDS011;41331;45.412;10.992;2022-12-18T16:49:43;29.85;;;18.38;;
23432;SDS011;41331;45.412;10.992;2022-12-18T16:52:13;29.87;;;18.43;;
23432;SDS011;41331;45.412;10.992;2022-12-18T16:54:41;32.80;;;19.48;;
23432;SDS011;41331;45.412;10.992;2022-12-18T16:57:09;30.08;;;19.45;;
23432;SDS011;41331;45.412;10.992;2022-12-18T16:59:39;31.00;;;19.50;;